sensor_id;sensor_type;location;lat;lon;timestamp;P1;durP1;ratioP1;P2;durP2;ratioP2
39872;SDS011;63160;48.854;9.292;2022-10-16T00:01:10;4.70;;;1.70;;
39872;SDS011;63160;48.854;9.292;2022-10-16T00:03:39;8.38;;;2.50;;
39872;SDS011;63160;48.854;9.292;2022-10-16T00:06:06;8.50;;;2.53;;
39872;SDS011;63160;48.854;9.292;2022-10-16T00:08:33;4.78;;;2.50;;
39872;SDS011;63160;48.854;9.292;2022-10-16T00:11:05;3.65;;;1.88;;
39872;SDS011;63160;48.854;9.292;2022-10-16T00:13:34;3.03;;;1.77;;
39872;SDS011;63160;48.854;9.292;2022-10-16T00:16:02;3.05;;;1.60;;
39872;SDS011;63160;48.854;9.292;2022-10-16T00:18:30;4.38;;;1.75;;
39872;SDS011;63160;48.854;9.292;2022-10-16T00:21:10;5.55;;;1.98;;
39872;SDS011;63160;48.854;9.292;2022-10-16T00:23:38;5.47;;;1.58;;
39872;SDS011;63160;48.854;9.292;2022-10-16T00:26:07;4.57;;;1.80;;
39872;SDS011;63160;48.854;9.292;2022-10-16T00:28:35;2.10;;;1.90;;
39872;SDS011;63160;48.854;9.292;2022-10-16T00:31:03;3.42;;;1.75;;
39872;SDS011;63160;48.854;9.292;2022-10-16T00:33:34;5.97;;;1.63;;
39872;SDS011;63160;48.854;9.292;2022-10-16T00:36:01;5.30;;;1.88;;
39872;SDS011;63160;48.854;9.292;2022-10-16T00:38:30;2.22;;;1.50;;
39872;SDS011;63160;48.854;9.292;2022-10-16T00:40:57;3.58;;;1.95;;
39872;SDS011;63160;48.854;9.292;2022-10-16T00:43:34;4.97;;;1.42;;
39872;SDS011;63160;48.854;9.292;2022-10-16T00:46:08;2.88;;;1.75;;
39872;SDS011;63160;48.854;9.292;2022-10-16T00:48:38;2.58;;;1.40;;
39872;SDS011;63160;48.854;9.292;2022-10-16T00:51:05;1.35;;;1.15;;
39872;SDS011;63160;48.854;9.292;2022-10-16T00:53:32;6.20;;;1.88;;
39872;SDS011;63160;48.854;9.292;2022-10-16T00:55:59;2.67;;;1.50;;
39872;SDS011;63160;48.854;9.292;2022-10-16T00:58:26;1.98;;;1.60;;
39872;SDS011;63160;48.854;9.292;2022-10-16T01:00:53;5.60;;;1.80;;
39872;SDS011;63160;48.854;9.292;2022-10-16T01:03:28;2.47;;;1.40;;
39872;SDS011;63160;48.854;9.292;2022-10-16T01:06:06;5.38;;;1.98;;
39872;SDS011;63160;48.854;9.292;2022-10-16T01:11:41;5.30;;;1.65;;
39872;SDS011;63160;48.854;9.292;2022-10-16T01:14:29;4.97;;;2.30;;
39872;SDS011;63160;48.854;9.292;2022-10-16T01:17:09;5.85;;;2.17;;
39872;SDS011;63160;48.854;9.292;2022-10-16T01:23:14;2.90;;;1.90;;
39872;SDS011;63160;48.854;9.292;2022-10-16T01:25:27;1.30;;;1.20;;
39872;SDS011;63160;48.854;9.292;2022-10-16T01:28:02;1.90;;;1.40;;
39872;SDS011;63160;48.854;9.292;2022-10-16T01:30:31;2.67;;;1.85;;
39872;SDS011;63160;48.854;9.292;2022-10-16T01:33:08;8.88;;;2.13;;
39872;SDS011;63160;48.854;9.292;2022-10-16T01:35:40;6.78;;;1.60;;
39872;SDS011;63160;48.854;9.292;2022-10-16T01:38:10;4.75;;;1.75;;
39872;SDS011;63160;48.854;9.292;2022-10-16T01:40:41;2.25;;;1.77;;
39872;SDS011;63160;48.854;9.292;2022-10-16T01:43:12;4.75;;;1.67;;
39872;SDS011;63160;48.854;9.292;2022-10-16T01:45:45;1.50;;;1.40;;
39872;SDS011;63160;48.854;9.292;2022-10-16T01:48:13;6.32;;;1.70;;
39872;SDS011;63160;48.854;9.292;2022-10-16T01:50:43;6.50;;;2.15;;
39872;SDS011;63160;48.854;9.292;2022-10-16T01:53:12;4.30;;;2.40;;
39872;SDS011;63160;48.854;9.292;2022-10-16T01:55:40;3.80;;;1.63;;
39872;SDS011;63160;48.854;9.292;2022-10-16T01:58:12;4.05;;;2.03;;
39872;SDS011;63160;48.854;9.292;2022-10-16T02:00:41;3.13;;;1.83;;
39872;SDS011;63160;48.854;9.292;2022-10-16T02:03:10;5.32;;;2.10;;
39872;SDS011;63160;48.854;9.292;2022-10-16T02:05:44;7.22;;;2.20;;
39872;SDS011;63160;48.854;9.292;2022-10-16T02:08:12;3.72;;;1.90;;
39872;SDS011;63160;48.854;9.292;2022-10-16T02:10:40;4.57;;;1.80;;
39872;SDS011;63160;48.854;9.292;2022-10-16T02:13:13;7.45;;;1.90;;
39872;SDS011;63160;48.854;9.292;2022-10-16T02:15:43;3.53;;;1.90;;
39872;SDS011;63160;48.854;9.292;2022-10-16T02:18:10;8.95;;;1.70;;
39872;SDS011;63160;48.854;9.292;2022-10-16T02:20:41;7.05;;;1.73;;
39872;SDS011;63160;48.854;9.292;2022-10-16T02:23:14;3.58;;;1.63;;
39872;SDS011;63160;48.854;9.292;2022-10-16T02:25:44;2.00;;;1.45;;
39872;SDS011;63160;48.854;9.292;2022-10-16T02:30:50;7.55;;;1.58;;
39872;SDS011;63160;48.854;9.292;2022-10-16T02:33:19;2.75;;;2.00;;
39872;SDS011;63160;48.854;9.292;2022-10-16T02:35:47;3.33;;;1.67;;
39872;SDS011;63160;48.854;9.292;2022-10-16T02:38:15;3.58;;;1.50;;
39872;SDS011;63160;48.854;9.292;2022-10-16T02:40:42;7.43;;;1.90;;
39872;SDS011;63160;48.854;9.292;2022-10-16T02:43:09;7.28;;;1.70;;
39872;SDS011;63160;48.854;9.292;2022-10-16T02:45:36;1.60;;;1.35;;
39872;SDS011;63160;48.854;9.292;2022-10-16T02:48:03;4.95;;;1.40;;
39872;SDS011;63160;48.854;9.292;2022-10-16T02:50:30;3.72;;;1.60;;
39872;SDS011;63160;48.854;9.292;2022-10-16T02:52:57;3.95;;;1.45;;
39872;SDS011;63160;48.854;9.292;2022-10-16T02:55:23;3.58;;;1.58;;
39872;SDS011;63160;48.854;9.292;2022-10-16T02:57:50;5.68;;;1.60;;
39872;SDS011;63160;48.854;9.292;2022-10-16T03:00:17;6.90;;;1.85;;
39872;SDS011;63160;48.854;9.292;2022-10-16T03:02:44;2.88;;;1.58;;
39872;SDS011;63160;48.854;9.292;2022-10-16T03:05:10;3.95;;;1.50;;
39872;SDS011;63160;48.854;9.292;2022-10-16T03:07:37;6.80;;;1.60;;
39872;SDS011;63160;48.854;9.292;2022-10-16T03:10:04;3.47;;;1.70;;
39872;SDS011;63160;48.854;9.292;2022-10-16T03:12:31;8.48;;;1.67;;
39872;SDS011;63160;48.854;9.292;2022-10-16T03:14:58;2.13;;;1.50;;
39872;SDS011;63160;48.854;9.292;2022-10-16T03:17:25;2.42;;;1.73;;
39872;SDS011;63160;48.854;9.292;2022-10-16T03:19:52;3.28;;;1.60;;
39872;SDS011;63160;48.854;9.292;2022-10-16T03:22:18;2.63;;;1.60;;
39872;SDS011;63160;48.854;9.292;2022-10-16T03:24:45;4.72;;;1.55;;
39872;SDS011;63160;48.854;9.292;2022-10-16T03:27:12;3.88;;;1.83;;
39872;SDS011;63160;48.854;9.292;2022-10-16T03:29:38;3.45;;;1.67;;
39872;SDS011;63160;48.854;9.292;2022-10-16T03:32:05;1.50;;;1.25;;
39872;SDS011;63160;48.854;9.292;2022-10-16T03:34:32;4.05;;;1.70;;
39872;SDS011;63160;48.854;9.292;2022-10-16T03:36:59;5.80;;;1.80;;
39872;SDS011;63160;48.854;9.292;2022-10-16T03:39:26;4.05;;;1.58;;
39872;SDS011;63160;48.854;9.292;2022-10-16T03:41:53;3.92;;;1.33;;
39872;SDS011;63160;48.854;9.292;2022-10-16T03:44:23;2.63;;;1.55;;
39872;SDS011;63160;48.854;9.292;2022-10-16T03:46:50;3.60;;;1.30;;
39872;SDS011;63160;48.854;9.292;2022-10-16T03:49:17;2.92;;;1.27;;
39872;SDS011;63160;48.854;9.292;2022-10-16T03:51:43;3.35;;;1.63;;
39872;SDS011;63160;48.854;9.292;2022-10-16T03:54:10;6.07;;;1.40;;
39872;SDS011;63160;48.854;9.292;2022-10-16T03:56:37;4.18;;;1.42;;
39872;SDS011;63160;48.854;9.292;2022-10-16T03:59:04;2.50;;;1.45;;
39872;SDS011;63160;48.854;9.292;2022-10-16T04:01:31;3.30;;;1.98;;
39872;SDS011;63160;48.854;9.292;2022-10-16T04:03:57;3.67;;;1.88;;
39872;SDS011;63160;48.854;9.292;2022-10-16T04:06:24;4.30;;;1.88;;
39872;SDS011;63160;48.854;9.292;2022-10-16T04:08:51;3.67;;;1.80;;
39872;SDS011;63160;48.854;9.292;2022-10-16T04:11:17;6.50;;;1.70;;
39872;SDS011;63160;48.854;9.292;2022-10-16T04:13:44;3.45;;;1.95;;
39872;SDS011;63160;48.854;9.292;2022-10-16T04:16:11;3.15;;;1.67;;
39872;SDS011;63160;48.854;9.292;2022-10-16T04:18:37;7.25;;;1.70;;
39872;SDS011;63160;48.854;9.292;2022-10-16T04:21:05;3.60;;;1.60;;
39872;SDS011;63160;48.854;9.292;2022-10-16T04:23:32;9.15;;;1.85;;
39872;SDS011;63160;48.854;9.292;2022-10-16T04:25:59;4.03;;;1.58;;
39872;SDS011;63160;48.854;9.292;2022-10-16T04:28:26;3.95;;;2.38;;
39872;SDS011;63160;48.854;9.292;2022-10-16T04:30:53;4.30;;;2.00;;
39872;SDS011;63160;48.854;9.292;2022-10-16T04:33:20;2.30;;;1.88;;
39872;SDS011;63160;48.854;9.292;2022-10-16T04:35:46;5.68;;;1.88;;
39872;SDS011;63160;48.854;9.292;2022-10-16T04:38:13;7.50;;;1.75;;
39872;SDS011;63160;48.854;9.292;2022-10-16T04:40:41;8.27;;;2.00;;
39872;SDS011;63160;48.854;9.292;2022-10-16T04:43:08;2.50;;;1.75;;
39872;SDS011;63160;48.854;9.292;2022-10-16T04:45:35;2.72;;;1.90;;
39872;SDS011;63160;48.854;9.292;2022-10-16T04:48:02;11.68;;;2.42;;
39872;SDS011;63160;48.854;9.292;2022-10-16T04:50:29;5.60;;;2.10;;
39872;SDS011;63160;48.854;9.292;2022-10-16T04:53:05;5.45;;;1.77;;
39872;SDS011;63160;48.854;9.292;2022-10-16T04:55:32;1.70;;;1.42;;
39872;SDS011;63160;48.854;9.292;2022-10-16T04:57:59;3.92;;;1.70;;
39872;SDS011;63160;48.854;9.292;2022-10-16T05:00:25;7.80;;;1.83;;
39872;SDS011;63160;48.854;9.292;2022-10-16T05:02:52;4.65;;;1.60;;
39872;SDS011;63160;48.854;9.292;2022-10-16T05:05:19;4.95;;;1.55;;
39872;SDS011;63160;48.854;9.292;2022-10-16T05:07:51;3.40;;;2.03;;
39872;SDS011;63160;48.854;9.292;2022-10-16T05:10:17;3.17;;;1.40;;
39872;SDS011;63160;48.854;9.292;2022-10-16T05:12:44;4.78;;;1.50;;
39872;SDS011;63160;48.854;9.292;2022-10-16T05:15:11;3.95;;;1.50;;
39872;SDS011;63160;48.854;9.292;2022-10-16T05:17:39;2.10;;;1.40;;
39872;SDS011;63160;48.854;9.292;2022-10-16T05:20:10;2.50;;;1.63;;
39872;SDS011;63160;48.854;9.292;2022-10-16T05:22:40;4.70;;;1.73;;
39872;SDS011;63160;48.854;9.292;2022-10-16T05:25:07;2.60;;;1.60;;
39872;SDS011;63160;48.854;9.292;2022-10-16T05:27:33;3.90;;;1.90;;
39872;SDS011;63160;48.854;9.292;2022-10-16T05:30:00;2.20;;;1.73;;
39872;SDS011;63160;48.854;9.292;2022-10-16T05:32:27;3.13;;;1.60;;
39872;SDS011;63160;48.854;9.292;2022-10-16T05:34:54;2.53;;;1.77;;
39872;SDS011;63160;48.854;9.292;2022-10-16T05:37:20;2.65;;;1.75;;
39872;SDS011;63160;48.854;9.292;2022-10-16T05:39:47;2.10;;;1.77;;
39872;SDS011;63160;48.854;9.292;2022-10-16T05:42:13;4.88;;;1.50;;
39872;SDS011;63160;48.854;9.292;2022-10-16T05:44:41;7.57;;;2.10;;
39872;SDS011;63160;48.854;9.292;2022-10-16T05:47:08;4.40;;;1.73;;
39872;SDS011;63160;48.854;9.292;2022-10-16T05:49:34;1.77;;;1.67;;
39872;SDS011;63160;48.854;9.292;2022-10-16T05:52:06;2.10;;;1.47;;
39872;SDS011;63160;48.854;9.292;2022-10-16T05:54:33;3.70;;;1.63;;
39872;SDS011;63160;48.854;9.292;2022-10-16T05:57:02;4.90;;;1.80;;
39872;SDS011;63160;48.854;9.292;2022-10-16T05:59:30;1.80;;;1.50;;
39872;SDS011;63160;48.854;9.292;2022-10-16T06:01:56;5.55;;;1.63;;
39872;SDS011;63160;48.854;9.292;2022-10-16T06:04:23;2.08;;;1.45;;
39872;SDS011;63160;48.854;9.292;2022-10-16T06:06:50;5.38;;;1.83;;
39872;SDS011;63160;48.854;9.292;2022-10-16T06:09:17;4.68;;;1.55;;
39872;SDS011;63160;48.854;9.292;2022-10-16T06:11:43;8.32;;;2.40;;
39872;SDS011;63160;48.854;9.292;2022-10-16T06:14:10;5.70;;;1.38;;
39872;SDS011;63160;48.854;9.292;2022-10-16T06:16:37;9.95;;;1.88;;
39872;SDS011;63160;48.854;9.292;2022-10-16T06:19:04;3.08;;;1.85;;
39872;SDS011;63160;48.854;9.292;2022-10-16T06:21:38;2.35;;;1.50;;
39872;SDS011;63160;48.854;9.292;2022-10-16T06:24:12;2.78;;;1.80;;
39872;SDS011;63160;48.854;9.292;2022-10-16T06:26:39;3.72;;;1.67;;
39872;SDS011;63160;48.854;9.292;2022-10-16T06:29:07;11.52;;;2.25;;
39872;SDS011;63160;48.854;9.292;2022-10-16T06:31:34;5.95;;;2.13;;
39872;SDS011;63160;48.854;9.292;2022-10-16T06:34:01;3.00;;;1.70;;
39872;SDS011;63160;48.854;9.292;2022-10-16T06:36:28;4.53;;;1.27;;
39872;SDS011;63160;48.854;9.292;2022-10-16T06:38:58;4.80;;;1.70;;
39872;SDS011;63160;48.854;9.292;2022-10-16T06:41:28;1.90;;;1.60;;
39872;SDS011;63160;48.854;9.292;2022-10-16T06:43:55;4.95;;;1.48;;
39872;SDS011;63160;48.854;9.292;2022-10-16T06:46:23;1.60;;;1.38;;
39872;SDS011;63160;48.854;9.292;2022-10-16T06:48:58;5.55;;;1.90;;
39872;SDS011;63160;48.854;9.292;2022-10-16T06:51:25;4.38;;;1.35;;
39872;SDS011;63160;48.854;9.292;2022-10-16T06:53:52;2.45;;;1.63;;
39872;SDS011;63160;48.854;9.292;2022-10-16T06:56:30;3.92;;;1.33;;
39872;SDS011;63160;48.854;9.292;2022-10-16T06:58:57;4.13;;;1.80;;
39872;SDS011;63160;48.854;9.292;2022-10-16T07:01:24;4.00;;;1.65;;
39872;SDS011;63160;48.854;9.292;2022-10-16T07:03:52;2.28;;;1.35;;
39872;SDS011;63160;48.854;9.292;2022-10-16T07:06:30;3.97;;;1.67;;
39872;SDS011;63160;48.854;9.292;2022-10-16T07:08:58;2.25;;;1.52;;
39872;SDS011;63160;48.854;9.292;2022-10-16T07:11:25;2.15;;;1.30;;
39872;SDS011;63160;48.854;9.292;2022-10-16T07:13:56;4.93;;;1.25;;
39872;SDS011;63160;48.854;9.292;2022-10-16T07:16:26;4.88;;;1.50;;
39872;SDS011;63160;48.854;9.292;2022-10-16T07:18:58;6.15;;;1.70;;
39872;SDS011;63160;48.854;9.292;2022-10-16T07:21:33;4.18;;;1.50;;
39872;SDS011;63160;48.854;9.292;2022-10-16T07:24:03;9.63;;;1.70;;
39872;SDS011;63160;48.854;9.292;2022-10-16T07:26:32;2.03;;;1.15;;
39872;SDS011;63160;48.854;9.292;2022-10-16T07:29:00;2.22;;;1.50;;
39872;SDS011;63160;48.854;9.292;2022-10-16T07:31:27;1.58;;;1.23;;
39872;SDS011;63160;48.854;9.292;2022-10-16T07:33:54;3.05;;;1.40;;
39872;SDS011;63160;48.854;9.292;2022-10-16T07:36:22;3.60;;;1.42;;
39872;SDS011;63160;48.854;9.292;2022-10-16T07:38:49;1.48;;;1.38;;
39872;SDS011;63160;48.854;9.292;2022-10-16T07:41:20;1.30;;;1.20;;
39872;SDS011;63160;48.854;9.292;2022-10-16T07:43:50;1.55;;;1.20;;
39872;SDS011;63160;48.854;9.292;2022-10-16T07:46:19;3.42;;;1.42;;
39872;SDS011;63160;48.854;9.292;2022-10-16T07:48:46;3.60;;;1.38;;
39872;SDS011;63160;48.854;9.292;2022-10-16T07:51:15;2.78;;;1.50;;
39872;SDS011;63160;48.854;9.292;2022-10-16T07:53:43;3.55;;;1.40;;
39872;SDS011;63160;48.854;9.292;2022-10-16T07:56:10;2.92;;;1.50;;
39872;SDS011;63160;48.854;9.292;2022-10-16T07:58:38;14.02;;;1.80;;
39872;SDS011;63160;48.854;9.292;2022-10-16T08:01:05;2.55;;;1.20;;
39872;SDS011;63160;48.854;9.292;2022-10-16T08:03:34;6.28;;;1.70;;
39872;SDS011;63160;48.854;9.292;2022-10-16T08:06:01;3.60;;;1.73;;
39872;SDS011;63160;48.854;9.292;2022-10-16T08:08:28;4.10;;;1.80;;
39872;SDS011;63160;48.854;9.292;2022-10-16T08:10:55;7.05;;;1.55;;
39872;SDS011;63160;48.854;9.292;2022-10-16T08:13:22;2.60;;;1.50;;
39872;SDS011;63160;48.854;9.292;2022-10-16T08:15:48;1.45;;;1.33;;
39872;SDS011;63160;48.854;9.292;2022-10-16T08:18:15;9.52;;;1.80;;
39872;SDS011;63160;48.854;9.292;2022-10-16T08:20:42;5.57;;;1.63;;
39872;SDS011;63160;48.854;9.292;2022-10-16T08:23:11;4.93;;;1.55;;
39872;SDS011;63160;48.854;9.292;2022-10-16T08:25:39;6.72;;;1.80;;
39872;SDS011;63160;48.854;9.292;2022-10-16T08:28:07;2.85;;;1.35;;
39872;SDS011;63160;48.854;9.292;2022-10-16T08:30:35;2.78;;;1.30;;
39872;SDS011;63160;48.854;9.292;2022-10-16T08:33:02;2.22;;;1.48;;
39872;SDS011;63160;48.854;9.292;2022-10-16T08:35:29;4.32;;;1.73;;
39872;SDS011;63160;48.854;9.292;2022-10-16T08:37:55;6.95;;;1.65;;
39872;SDS011;63160;48.854;9.292;2022-10-16T08:40:24;3.67;;;1.30;;
39872;SDS011;63160;48.854;9.292;2022-10-16T08:45:43;3.10;;;1.40;;
39872;SDS011;63160;48.854;9.292;2022-10-16T08:48:30;8.23;;;1.83;;
39872;SDS011;63160;48.854;9.292;2022-10-16T08:51:02;3.53;;;1.63;;
39872;SDS011;63160;48.854;9.292;2022-10-16T08:53:33;2.35;;;1.30;;
39872;SDS011;63160;48.854;9.292;2022-10-16T08:56:05;3.42;;;1.40;;
39872;SDS011;63160;48.854;9.292;2022-10-16T08:58:31;5.55;;;1.80;;
39872;SDS011;63160;48.854;9.292;2022-10-16T09:01:00;1.98;;;1.60;;
39872;SDS011;63160;48.854;9.292;2022-10-16T09:17:16;7.32;;;2.00;;
39872;SDS011;63160;48.854;9.292;2022-10-16T09:23:18;5.05;;;1.85;;
39872;SDS011;63160;48.854;9.292;2022-10-16T09:25:48;1.83;;;1.58;;
39872;SDS011;63160;48.854;9.292;2022-10-16T09:28:17;2.90;;;1.42;;
39872;SDS011;63160;48.854;9.292;2022-10-16T09:30:45;3.85;;;1.50;;
39872;SDS011;63160;48.854;9.292;2022-10-16T09:33:15;3.70;;;1.60;;
39872;SDS011;63160;48.854;9.292;2022-10-16T09:35:49;8.93;;;1.60;;
39872;SDS011;63160;48.854;9.292;2022-10-16T09:38:35;4.78;;;1.10;;
39872;SDS011;63160;48.854;9.292;2022-10-16T09:41:03;1.70;;;1.23;;
39872;SDS011;63160;48.854;9.292;2022-10-16T09:43:54;7.47;;;2.60;;
39872;SDS011;63160;48.854;9.292;2022-10-16T09:48:58;6.45;;;1.50;;
39872;SDS011;63160;48.854;9.292;2022-10-16T09:51:30;4.30;;;1.67;;
39872;SDS011;63160;48.854;9.292;2022-10-16T09:54:01;2.33;;;1.30;;
39872;SDS011;63160;48.854;9.292;2022-10-16T09:56:35;1.77;;;1.10;;
39872;SDS011;63160;48.854;9.292;2022-10-16T09:59:14;4.97;;;1.58;;
39872;SDS011;63160;48.854;9.292;2022-10-16T10:01:43;7.10;;;1.25;;
39872;SDS011;63160;48.854;9.292;2022-10-16T10:04:12;6.55;;;1.30;;
39872;SDS011;63160;48.854;9.292;2022-10-16T10:09:16;2.88;;;1.30;;
39872;SDS011;63160;48.854;9.292;2022-10-16T10:11:53;2.13;;;1.20;;
39872;SDS011;63160;48.854;9.292;2022-10-16T10:17:08;4.23;;;1.40;;
39872;SDS011;63160;48.854;9.292;2022-10-16T10:19:38;4.57;;;1.40;;
39872;SDS011;63160;48.854;9.292;2022-10-16T10:25:00;4.95;;;1.15;;
39872;SDS011;63160;48.854;9.292;2022-10-16T10:30:55;2.90;;;1.40;;
39872;SDS011;63160;48.854;9.292;2022-10-16T10:44:07;2.58;;;1.70;;
39872;SDS011;63160;48.854;9.292;2022-10-16T10:46:43;1.58;;;1.23;;
39872;SDS011;63160;48.854;9.292;2022-10-16T11:06:07;9.30;;;1.30;;
39872;SDS011;63160;48.854;9.292;2022-10-16T11:09:11;1.63;;;1.27;;
39872;SDS011;63160;48.854;9.292;2022-10-16T11:11:44;4.03;;;1.40;;
39872;SDS011;63160;48.854;9.292;2022-10-16T11:17:00;3.10;;;1.58;;
39872;SDS011;63160;48.854;9.292;2022-10-16T11:19:37;4.65;;;1.17;;
39872;SDS011;63160;48.854;9.292;2022-10-16T11:27:22;5.70;;;1.50;;
39872;SDS011;63160;48.854;9.292;2022-10-16T11:30:02;1.58;;;1.27;;
39872;SDS011;63160;48.854;9.292;2022-10-16T11:35:40;1.17;;;1.02;;
39872;SDS011;63160;48.854;9.292;2022-10-16T11:38:13;2.15;;;1.10;;
39872;SDS011;63160;48.854;9.292;2022-10-16T11:40:54;2.13;;;1.15;;
39872;SDS011;63160;48.854;9.292;2022-10-16T11:43:41;2.22;;;1.20;;
39872;SDS011;63160;48.854;9.292;2022-10-16T11:46:17;3.22;;;1.67;;
39872;SDS011;63160;48.854;9.292;2022-10-16T11:51:36;1.58;;;1.15;;
39872;SDS011;63160;48.854;9.292;2022-10-16T11:54:08;2.63;;;1.23;;
39872;SDS011;63160;48.854;9.292;2022-10-16T11:59:58;2.67;;;1.10;;
39872;SDS011;63160;48.854;9.292;2022-10-16T12:05:33;1.67;;;1.30;;
39872;SDS011;63160;48.854;9.292;2022-10-16T12:08:11;1.73;;;1.17;;
39872;SDS011;63160;48.854;9.292;2022-10-16T12:10:42;3.92;;;1.30;;
39872;SDS011;63160;48.854;9.292;2022-10-16T12:13:30;2.95;;;1.38;;
39872;SDS011;63160;48.854;9.292;2022-10-16T12:16:04;2.17;;;1.20;;
39872;SDS011;63160;48.854;9.292;2022-10-16T12:18:34;1.73;;;1.45;;
39872;SDS011;63160;48.854;9.292;2022-10-16T12:21:01;1.33;;;1.17;;
39872;SDS011;63160;48.854;9.292;2022-10-16T12:23:37;3.53;;;1.77;;
39872;SDS011;63160;48.854;9.292;2022-10-16T12:26:12;2.65;;;1.20;;
39872;SDS011;63160;48.854;9.292;2022-10-16T12:28:39;5.38;;;1.13;;
39872;SDS011;63160;48.854;9.292;2022-10-16T12:31:07;2.83;;;1.38;;
39872;SDS011;63160;48.854;9.292;2022-10-16T12:33:36;2.95;;;1.00;;
39872;SDS011;63160;48.854;9.292;2022-10-16T12:36:05;2.55;;;1.80;;
39872;SDS011;63160;48.854;9.292;2022-10-16T12:38:49;6.43;;;1.58;;
39872;SDS011;63160;48.854;9.292;2022-10-16T12:41:27;1.83;;;1.52;;
39872;SDS011;63160;48.854;9.292;2022-10-16T12:43:55;3.95;;;1.58;;
39872;SDS011;63160;48.854;9.292;2022-10-16T12:51:40;4.53;;;1.40;;
39872;SDS011;63160;48.854;9.292;2022-10-16T12:54:18;3.53;;;1.30;;
39872;SDS011;63160;48.854;9.292;2022-10-16T12:56:50;6.95;;;1.90;;
39872;SDS011;63160;48.854;9.292;2022-10-16T12:59:53;2.42;;;1.45;;
39872;SDS011;63160;48.854;9.292;2022-10-16T13:05:46;5.40;;;1.73;;
39872;SDS011;63160;48.854;9.292;2022-10-16T13:08:25;9.60;;;1.70;;
39872;SDS011;63160;48.854;9.292;2022-10-16T13:22:24;4.82;;;1.75;;
39872;SDS011;63160;48.854;9.292;2022-10-16T13:25:08;4.03;;;1.67;;
39872;SDS011;63160;48.854;9.292;2022-10-16T13:27:43;4.10;;;1.50;;
39872;SDS011;63160;48.854;9.292;2022-10-16T13:30:16;1.50;;;1.40;;
39872;SDS011;63160;48.854;9.292;2022-10-16T13:32:45;4.03;;;1.33;;
39872;SDS011;63160;48.854;9.292;2022-10-16T13:35:18;1.73;;;1.10;;
39872;SDS011;63160;48.854;9.292;2022-10-16T13:37:46;2.30;;;1.42;;
39872;SDS011;63160;48.854;9.292;2022-10-16T13:40:18;2.05;;;1.58;;
39872;SDS011;63160;48.854;9.292;2022-10-16T13:42:46;3.70;;;1.83;;
39872;SDS011;63160;48.854;9.292;2022-10-16T13:45:52;4.03;;;1.95;;
39872;SDS011;63160;48.854;9.292;2022-10-16T13:48:09;3.97;;;1.75;;
39872;SDS011;63160;48.854;9.292;2022-10-16T13:50:38;1.80;;;1.70;;
39872;SDS011;63160;48.854;9.292;2022-10-16T13:53:06;3.22;;;1.33;;
39872;SDS011;63160;48.854;9.292;2022-10-16T13:55:39;2.20;;;1.48;;
39872;SDS011;63160;48.854;9.292;2022-10-16T13:58:15;4.20;;;1.20;;
39872;SDS011;63160;48.854;9.292;2022-10-16T14:00:58;5.85;;;1.75;;
39872;SDS011;63160;48.854;9.292;2022-10-16T14:03:27;3.17;;;1.35;;
39872;SDS011;63160;48.854;9.292;2022-10-16T14:05:56;1.42;;;1.30;;
39872;SDS011;63160;48.854;9.292;2022-10-16T14:08:25;2.58;;;1.42;;
39872;SDS011;63160;48.854;9.292;2022-10-16T14:10:55;3.97;;;1.70;;
39872;SDS011;63160;48.854;9.292;2022-10-16T14:13:31;3.50;;;1.48;;
39872;SDS011;63160;48.854;9.292;2022-10-16T14:16:28;4.68;;;1.80;;
39872;SDS011;63160;48.854;9.292;2022-10-16T14:19:00;1.63;;;1.52;;
39872;SDS011;63160;48.854;9.292;2022-10-16T14:21:28;3.42;;;1.80;;
39872;SDS011;63160;48.854;9.292;2022-10-16T14:23:55;3.75;;;1.67;;
39872;SDS011;63160;48.854;9.292;2022-10-16T14:26:23;3.42;;;1.63;;
39872;SDS011;63160;48.854;9.292;2022-10-16T14:29:03;4.07;;;1.48;;
39872;SDS011;63160;48.854;9.292;2022-10-16T14:31:37;2.15;;;1.95;;
39872;SDS011;63160;48.854;9.292;2022-10-16T14:37:00;8.45;;;1.77;;
39872;SDS011;63160;48.854;9.292;2022-10-16T14:40:00;2.92;;;1.50;;
39872;SDS011;63160;48.854;9.292;2022-10-16T14:42:27;3.92;;;2.03;;
39872;SDS011;63160;48.854;9.292;2022-10-16T14:44:54;2.50;;;1.48;;
39872;SDS011;63160;48.854;9.292;2022-10-16T14:47:23;1.75;;;1.48;;
39872;SDS011;63160;48.854;9.292;2022-10-16T14:49:53;1.63;;;1.50;;
39872;SDS011;63160;48.854;9.292;2022-10-16T14:52:25;7.47;;;1.90;;
39872;SDS011;63160;48.854;9.292;2022-10-16T14:54:52;2.17;;;1.67;;
39872;SDS011;63160;48.854;9.292;2022-10-16T14:57:23;2.78;;;1.70;;
39872;SDS011;63160;48.854;9.292;2022-10-16T14:59:53;1.75;;;1.50;;
39872;SDS011;63160;48.854;9.292;2022-10-16T15:04:55;1.92;;;1.50;;
39872;SDS011;63160;48.854;9.292;2022-10-16T15:07:23;3.05;;;1.50;;
39872;SDS011;63160;48.854;9.292;2022-10-16T15:09:50;2.88;;;1.70;;
39872;SDS011;63160;48.854;9.292;2022-10-16T15:12:17;4.53;;;3.17;;
39872;SDS011;63160;48.854;9.292;2022-10-16T15:14:44;5.10;;;3.50;;
39872;SDS011;63160;48.854;9.292;2022-10-16T15:17:10;4.75;;;2.97;;
39872;SDS011;63160;48.854;9.292;2022-10-16T15:19:38;4.28;;;1.65;;
39872;SDS011;63160;48.854;9.292;2022-10-16T15:22:05;2.63;;;1.70;;
39872;SDS011;63160;48.854;9.292;2022-10-16T15:24:32;3.10;;;2.22;;
39872;SDS011;63160;48.854;9.292;2022-10-16T15:26:58;2.83;;;2.22;;
39872;SDS011;63160;48.854;9.292;2022-10-16T15:29:25;4.32;;;1.70;;
39872;SDS011;63160;48.854;9.292;2022-10-16T15:31:52;6.00;;;3.05;;
39872;SDS011;63160;48.854;9.292;2022-10-16T15:34:18;6.60;;;4.13;;
39872;SDS011;63160;48.854;9.292;2022-10-16T15:36:46;4.32;;;2.67;;
39872;SDS011;63160;48.854;9.292;2022-10-16T15:39:17;3.03;;;2.05;;
39872;SDS011;63160;48.854;9.292;2022-10-16T15:41:48;2.95;;;2.00;;
39872;SDS011;63160;48.854;9.292;2022-10-16T15:44:17;2.58;;;2.08;;
39872;SDS011;63160;48.854;9.292;2022-10-16T15:46:44;3.20;;;2.47;;
39872;SDS011;63160;48.854;9.292;2022-10-16T15:49:11;5.88;;;3.20;;
39872;SDS011;63160;48.854;9.292;2022-10-16T15:51:39;8.95;;;4.07;;
39872;SDS011;63160;48.854;9.292;2022-10-16T15:54:06;5.32;;;4.28;;
39872;SDS011;63160;48.854;9.292;2022-10-16T15:56:33;3.40;;;3.00;;
39872;SDS011;63160;48.854;9.292;2022-10-16T15:59:00;4.60;;;2.63;;
39872;SDS011;63160;48.854;9.292;2022-10-16T16:01:28;4.32;;;2.60;;
39872;SDS011;63160;48.854;9.292;2022-10-16T16:03:55;3.38;;;2.47;;
39872;SDS011;63160;48.854;9.292;2022-10-16T16:06:22;2.95;;;2.08;;
39872;SDS011;63160;48.854;9.292;2022-10-16T16:08:50;3.83;;;2.05;;
39872;SDS011;63160;48.854;9.292;2022-10-16T16:11:18;6.43;;;2.10;;
39872;SDS011;63160;48.854;9.292;2022-10-16T16:13:45;4.95;;;3.40;;
39872;SDS011;63160;48.854;9.292;2022-10-16T16:16:13;7.65;;;2.90;;
39872;SDS011;63160;48.854;9.292;2022-10-16T16:18:41;9.52;;;2.75;;
39872;SDS011;63160;48.854;9.292;2022-10-16T16:21:10;5.97;;;2.95;;
39872;SDS011;63160;48.854;9.292;2022-10-16T16:23:37;8.68;;;4.38;;
39872;SDS011;63160;48.854;9.292;2022-10-16T16:28:39;12.48;;;2.70;;
39872;SDS011;63160;48.854;9.292;2022-10-16T16:31:07;5.45;;;2.45;;
39872;SDS011;63160;48.854;9.292;2022-10-16T16:33:34;6.93;;;2.83;;
39872;SDS011;63160;48.854;9.292;2022-10-16T16:36:02;2.15;;;1.95;;
39872;SDS011;63160;48.854;9.292;2022-10-16T16:38:35;2.50;;;2.30;;
39872;SDS011;63160;48.854;9.292;2022-10-16T16:41:18;2.70;;;1.80;;
39872;SDS011;63160;48.854;9.292;2022-10-16T16:43:46;6.65;;;2.65;;
39872;SDS011;63160;48.854;9.292;2022-10-16T16:46:14;8.75;;;2.83;;
39872;SDS011;63160;48.854;9.292;2022-10-16T16:48:41;12.98;;;4.00;;
39872;SDS011;63160;48.854;9.292;2022-10-16T16:51:09;9.10;;;5.50;;
39872;SDS011;63160;48.854;9.292;2022-10-16T16:53:42;9.35;;;6.40;;
39872;SDS011;63160;48.854;9.292;2022-10-16T16:56:10;9.05;;;6.32;;
39872;SDS011;63160;48.854;9.292;2022-10-16T16:58:37;11.35;;;7.72;;
39872;SDS011;63160;48.854;9.292;2022-10-16T17:01:04;12.60;;;7.25;;
39872;SDS011;63160;48.854;9.292;2022-10-16T17:03:45;14.52;;;7.47;;